Aérodrome :
LOGIN :

S'inscrire | Disclaimer

   EN    FR    IT 

 










Légende :    VFR   VFR Marginal   IFR   IFR Intensif   IFR Très Intensif
Visi : 
Plafond : 
>= 8 km
>= 3000ft
5 à 8 km
1000 à 3000 ft
1500m à 5 km
500 à 1000 ft
800 à 1500m
200 à 500 ft
< 800m
< 200 ft
Symboles :   Orages  Brouillard  Fortes neiges  Fortes précipitations  Vent > 20 kt
SIGMETs :   Divers  Orages  Givrage  Turbulence  Onde Orograph.  Cendres Volcan.






- Altitude de l'aérodrome : 297 ft
- Code IATA : BBU


LRBS - Bucarest - Baneasa Aurel Vlaicu

DERNIER METAR :
  • 231800Z 25007KT CAVOK 10/01 Q1015 NOSIG

METARs EXPIRÉS :
  • 231730Z 26005KT CAVOK 10/02 Q1015 NOSIG
  • 231700Z 22004KT 190V260 CAVOK 10/02 Q1016 NOSIG
  • 231630Z 24006KT CAVOK 10/02 Q1017 NOSIG
  • 231600Z 24007KT CAVOK 10/02 Q1017 NOSIG
  • 231530Z 24009KT CAVOK 11/02 Q1017 NOSIG
  • 231500Z 24010KT 220V280 CAVOK 11/02 Q1017 NOSIG

TAF TAF LRBS
Valide du 23 à 18h jusqu'au 24 à 18h UTC


231700Z 2318/2418 24008KT CAVOK
BECMG 2321/2323 26018KT
PROB30
TEMPO 2323/2403 27020G30KT
BECMG 2405/2407 26020G30KT
TEMPO 2408/2411 26030G40KT
BECMG 2411/2413 35018G30KT
BECMG 2414/2416 35015KT
BECMG 2416/2418 29008KT



MET'MAP, la Météo Aéronautique d'un coup d'oeil ! - Copyright ORBIFLY Décembre 2007 - Disclaimer

ORBIFLY MET'MAP TEAM :

Programmation & Développement : Alexandra Zaïnal
Sur une idée originale de : Baudouin d'Aumeries
Assistance à la programmation : Marc-Olivier Méhu
Soutien technique & logistique : Manuel Goepfert

Contact : metmap@orbifly.com




SOURCES & CREDITS :

   NOAA